createdAt,value
2019-06-19T00:00:33.746Z,19.84
2019-06-19T00:01:33.411Z,19.83
2019-06-19T00:02:33.532Z,19.88
2019-06-19T00:03:33.513Z,19.93
2019-06-19T00:04:33.545Z,19.88
2019-06-19T00:05:33.606Z,19.90
2019-06-19T00:06:33.653Z,19.90
2019-06-19T00:07:33.691Z,19.91
2019-06-19T00:08:33.830Z,19.88
2019-06-19T00:09:33.766Z,19.88
2019-06-19T00:10:33.830Z,19.90
2019-06-19T00:11:33.858Z,19.84
2019-06-19T00:12:33.926Z,19.87
2019-06-19T00:13:33.995Z,19.95
2019-06-19T00:14:34.036Z,19.97
2019-06-19T00:15:34.064Z,19.93
2019-06-19T00:16:34.096Z,19.95
2019-06-19T00:17:34.113Z,19.90
2019-06-19T00:18:34.161Z,19.90
2019-06-19T00:19:36.906Z,19.90
2019-06-19T00:20:34.261Z,19.86
2019-06-19T00:21:34.316Z,19.94
2019-06-19T00:22:34.367Z,19.88
2019-06-19T00:23:34.403Z,19.90
2019-06-19T00:24:34.418Z,20.00
2019-06-19T00:25:34.465Z,19.97
2019-06-19T00:26:34.519Z,19.93
2019-06-19T00:27:34.575Z,20.03
2019-06-19T00:28:34.648Z,19.98
2019-06-19T00:29:40.475Z,20.15
2019-06-19T00:30:34.741Z,20.15
2019-06-19T00:31:34.747Z,20.20
2019-06-19T00:32:34.796Z,20.10
2019-06-19T00:33:34.815Z,20.18
2019-06-19T00:34:34.876Z,20.23
2019-06-19T00:35:34.945Z,20.24
2019-06-19T00:36:34.959Z,20.21
2019-06-19T00:37:35.043Z,20.28
2019-06-19T00:38:35.049Z,20.23
2019-06-19T00:39:35.092Z,20.24
2019-06-19T00:40:35.148Z,20.23
2019-06-19T00:41:35.188Z,20.20
2019-06-19T00:42:35.221Z,20.27
2019-06-19T00:43:35.278Z,20.28
2019-06-19T00:44:35.310Z,20.24
2019-06-19T00:45:35.388Z,20.30
2019-06-19T00:46:35.422Z,20.30
2019-06-19T00:47:35.432Z,20.25
2019-06-19T00:48:35.506Z,20.25
2019-06-19T00:49:35.562Z,20.24
2019-06-19T00:50:35.568Z,20.25
2019-06-19T00:51:35.642Z,20.20
2019-06-19T00:52:35.682Z,20.27
2019-06-19T00:53:35.725Z,20.21
2019-06-19T00:54:35.775Z,20.21
2019-06-19T00:55:35.813Z,20.16
2019-06-19T00:56:35.851Z,20.10
2019-06-19T00:57:35.912Z,20.12
2019-06-19T00:58:35.951Z,20.09
2019-06-19T00:59:35.994Z,20.16
2019-06-19T01:00:36.077Z,20.15
2019-06-19T01:01:36.067Z,19.98
2019-06-19T01:02:36.154Z,20.03
2019-06-19T01:03:36.151Z,20.08
2019-06-19T01:04:36.198Z,20.08
2019-06-19T01:05:36.241Z,20.15
2019-06-19T01:06:36.286Z,20.12
2019-06-19T01:07:36.392Z,20.16
2019-06-19T01:08:36.427Z,20.13
2019-06-19T01:09:36.475Z,20.13
2019-06-19T01:10:36.536Z,20.13
2019-06-19T01:11:36.556Z,20.12
2019-06-19T01:12:36.603Z,20.10
2019-06-19T01:13:36.694Z,20.10
2019-06-19T01:14:36.685Z,20.06
2019-06-19T01:15:36.693Z,20.08
2019-06-19T01:16:36.737Z,19.98
2019-06-19T01:17:36.756Z,20.06
2019-06-19T01:18:36.862Z,20.05
2019-06-19T01:19:36.967Z,20.08
2019-06-19T01:20:36.960Z,19.98
2019-06-19T01:21:37.009Z,20.02
2019-06-19T01:22:36.990Z,19.98
2019-06-19T01:23:37.096Z,19.95
2019-06-19T01:24:37.158Z,19.94
2019-06-19T01:25:37.140Z,19.97
2019-06-19T01:26:37.176Z,19.84
2019-06-19T01:27:37.223Z,19.94
2019-06-19T01:28:37.248Z,19.91
2019-06-19T01:29:37.397Z,19.87
2019-06-19T01:30:37.340Z,19.86
2019-06-19T01:31:37.430Z,19.97
2019-06-19T01:32:37.484Z,19.86
2019-06-19T01:33:37.545Z,19.87
2019-06-19T01:34:37.524Z,19.87
2019-06-19T01:35:37.647Z,19.90
2019-06-19T01:36:37.668Z,19.90
2019-06-19T01:37:37.701Z,19.97
2019-06-19T01:38:37.704Z,19.80
2019-06-19T01:39:37.729Z,19.80
2019-06-19T01:40:37.934Z,19.83
2019-06-19T01:41:37.827Z,19.83
2019-06-19T01:42:37.893Z,19.84
2019-06-19T01:43:40.739Z,19.83
2019-06-19T01:44:37.968Z,19.78
2019-06-19T01:45:38.041Z,19.84
2019-06-19T01:46:40.728Z,19.83
2019-06-19T01:47:38.093Z,19.79
2019-06-19T01:48:38.150Z,19.78
2019-06-19T01:49:38.222Z,19.69
2019-06-19T01:50:38.229Z,19.86
2019-06-19T01:51:38.292Z,19.86
2019-06-19T01:52:38.313Z,19.80
2019-06-19T01:53:41.124Z,19.79
2019-06-19T01:54:40.980Z,19.86
2019-06-19T01:55:38.440Z,19.79
2019-06-19T01:56:40.592Z,19.80
2019-06-19T01:57:40.786Z,19.76
2019-06-19T01:58:38.586Z,19.72
2019-06-19T01:59:38.623Z,19.79
2019-06-19T02:00:40.977Z,19.79
2019-06-19T02:01:41.017Z,19.80
2019-06-19T02:02:41.112Z,19.75
2019-06-19T02:03:41.319Z,19.75
2019-06-19T02:04:38.846Z,19.79
2019-06-19T02:05:40.742Z,19.70
2019-06-19T02:06:38.917Z,19.76
2019-06-19T02:07:40.997Z,19.65
2019-06-19T02:08:41.004Z,19.72
2019-06-19T02:09:40.981Z,19.70
2019-06-19T02:10:41.087Z,19.69
2019-06-19T02:11:42.117Z,19.76
2019-06-19T02:12:41.209Z,19.66
2019-06-19T02:13:41.542Z,19.66
2019-06-19T02:14:40.721Z,19.68
2019-06-19T02:15:41.604Z,19.65
2019-06-19T02:16:41.237Z,19.58
2019-06-19T02:17:41.516Z,19.66
2019-06-19T02:18:41.659Z,19.57
2019-06-19T02:19:42.362Z,19.57
2019-06-19T02:20:41.554Z,19.57
2019-06-19T02:21:41.145Z,19.48
2019-06-19T02:22:40.913Z,19.43
2019-06-19T02:23:40.485Z,19.46
2019-06-19T02:24:41.480Z,19.42
2019-06-19T02:25:41.793Z,19.51
2019-06-19T02:26:40.736Z,19.43
2019-06-19T02:27:40.737Z,19.47
2019-06-19T02:28:40.587Z,19.46
2019-06-19T02:29:40.388Z,19.38
2019-06-19T02:30:56.607Z,19.46
2019-06-19T02:31:42.080Z,19.42
2019-06-19T02:32:42.842Z,19.42
2019-06-19T02:33:42.123Z,19.42
2019-06-19T02:34:42.081Z,19.40
2019-06-19T02:35:41.267Z,19.43
2019-06-19T02:36:43.147Z,19.43
2019-06-19T02:37:42.316Z,19.40
2019-06-19T02:38:41.695Z,19.40
2019-06-19T02:39:40.345Z,19.42
2019-06-19T02:40:40.830Z,19.39
2019-06-19T02:41:40.783Z,19.43
2019-06-19T02:42:40.486Z,19.36
2019-06-19T02:43:40.515Z,19.28
2019-06-19T02:44:40.586Z,19.32
2019-06-19T02:45:40.596Z,19.31
2019-06-19T02:46:40.650Z,19.35
2019-06-19T02:47:40.701Z,19.31
2019-06-19T02:48:40.730Z,19.21
2019-06-19T02:49:40.792Z,19.25
2019-06-19T02:50:40.821Z,19.17
2019-06-19T02:51:40.864Z,19.20
2019-06-19T02:52:40.901Z,19.23
2019-06-19T02:53:40.928Z,19.18
2019-06-19T02:54:40.987Z,19.08
2019-06-19T02:55:41.035Z,19.11
2019-06-19T02:56:41.087Z,19.18
2019-06-19T02:57:41.126Z,19.11
2019-06-19T02:58:41.182Z,19.21
2019-06-19T02:59:41.217Z,19.13
2019-06-19T03:00:41.241Z,19.13
2019-06-19T03:01:41.274Z,19.02
2019-06-19T03:02:41.335Z,19.06
2019-06-19T03:03:41.359Z,18.97
2019-06-19T03:04:41.418Z,18.98
2019-06-19T03:05:41.493Z,18.94
2019-06-19T03:06:41.482Z,18.97
2019-06-19T03:07:41.547Z,18.92
2019-06-19T03:08:41.584Z,18.95
2019-06-19T03:09:41.652Z,18.94
2019-06-19T03:10:41.692Z,18.99
2019-06-19T03:11:41.720Z,18.95
2019-06-19T03:12:41.742Z,18.92
2019-06-19T03:13:41.806Z,18.87
2019-06-19T03:14:41.839Z,18.91
2019-06-19T03:15:41.887Z,18.79
2019-06-19T03:16:41.913Z,18.82
2019-06-19T03:17:41.959Z,18.91
2019-06-19T03:18:42.016Z,18.87
2019-06-19T03:19:42.098Z,18.87
2019-06-19T03:20:42.112Z,18.87
2019-06-19T03:21:42.142Z,18.87
2019-06-19T03:22:42.188Z,18.79
2019-06-19T03:23:42.214Z,18.86
2019-06-19T03:24:42.253Z,18.74
2019-06-19T03:25:42.287Z,18.91
2019-06-19T03:26:42.402Z,18.87
2019-06-19T03:27:42.386Z,18.80
2019-06-19T03:28:42.425Z,18.79
2019-06-19T03:29:42.453Z,18.73
2019-06-19T03:30:42.551Z,18.80
2019-06-19T03:31:42.548Z,18.70
2019-06-19T03:32:42.611Z,18.74
2019-06-19T03:33:42.639Z,18.76
2019-06-19T03:34:42.674Z,18.77
2019-06-19T03:35:42.729Z,18.76
2019-06-19T03:36:42.767Z,18.70
2019-06-19T03:37:42.821Z,18.64
2019-06-19T03:38:42.861Z,18.65
2019-06-19T03:39:42.894Z,18.68
2019-06-19T03:40:42.967Z,18.72
2019-06-19T03:41:43.002Z,18.62
2019-06-19T03:42:43.012Z,18.73
2019-06-19T03:43:43.056Z,18.70
2019-06-19T03:44:43.188Z,18.70
2019-06-19T03:45:43.174Z,18.67
2019-06-19T03:46:43.182Z,18.73
2019-06-19T03:47:43.237Z,18.67
2019-06-19T03:48:43.272Z,18.70
2019-06-19T03:49:43.320Z,18.70
2019-06-19T03:50:43.362Z,18.70
2019-06-19T03:51:43.405Z,18.67
2019-06-19T03:52:43.442Z,18.70
2019-06-19T03:53:43.499Z,18.65
2019-06-19T03:54:43.530Z,18.74
2019-06-19T03:55:43.580Z,18.73
2019-06-19T03:56:43.613Z,18.59
2019-06-19T03:57:43.671Z,18.47
2019-06-19T03:58:43.714Z,18.52
2019-06-19T03:59:43.743Z,18.40
2019-06-19T04:00:43.789Z,18.47
2019-06-19T04:01:49.326Z,18.47
2019-06-19T04:02:43.847Z,18.47
2019-06-19T04:03:43.903Z,18.42
2019-06-19T04:04:43.955Z,18.46
2019-06-19T04:05:43.992Z,18.47
2019-06-19T04:06:44.032Z,18.37
2019-06-19T04:07:44.074Z,18.36
2019-06-19T04:08:44.119Z,18.33
2019-06-19T04:09:44.187Z,18.27
2019-06-19T04:10:44.195Z,18.33
2019-06-19T04:11:44.265Z,18.34
2019-06-19T04:12:44.284Z,18.27
2019-06-19T04:13:44.338Z,18.22
2019-06-19T04:14:44.373Z,18.24
2019-06-19T04:15:44.422Z,18.29
2019-06-19T04:16:44.451Z,18.34
2019-06-19T04:17:44.497Z,18.33
2019-06-19T04:18:44.542Z,18.22
2019-06-19T04:19:44.568Z,18.33
2019-06-19T04:20:44.632Z,18.25
2019-06-19T04:21:44.687Z,18.25
2019-06-19T04:22:44.721Z,18.24
2019-06-19T04:23:44.738Z,18.24
2019-06-19T04:24:44.777Z,18.25
2019-06-19T04:25:44.842Z,18.33
2019-06-19T04:26:44.888Z,18.31
2019-06-19T04:27:44.923Z,18.40
2019-06-19T04:28:44.969Z,18.33
2019-06-19T04:29:44.997Z,18.31
2019-06-19T04:30:45.041Z,18.33
2019-06-19T04:31:45.083Z,18.34
2019-06-19T04:32:45.124Z,18.31
2019-06-19T04:33:45.158Z,18.27
2019-06-19T04:34:45.240Z,18.31
2019-06-19T04:35:45.248Z,18.27
2019-06-19T04:36:45.325Z,18.33
2019-06-19T04:37:45.337Z,18.42
2019-06-19T04:38:45.391Z,18.42
2019-06-19T04:39:45.413Z,18.44
2019-06-19T04:40:45.444Z,18.46
2019-06-19T04:41:45.516Z,18.49
2019-06-19T04:42:45.552Z,18.39
2019-06-19T04:43:45.602Z,18.47
2019-06-19T04:44:45.606Z,18.42
2019-06-19T04:45:45.692Z,18.42
2019-06-19T04:46:45.697Z,18.37
2019-06-19T04:47:45.754Z,18.36
2019-06-19T04:48:45.782Z,18.36
2019-06-19T04:49:45.847Z,18.27
2019-06-19T04:50:45.885Z,18.29
2019-06-19T04:51:45.933Z,18.33
2019-06-19T04:52:46.951Z,18.39
2019-06-19T04:53:46.019Z,18.40
2019-06-19T04:54:46.088Z,18.40
2019-06-19T04:55:46.097Z,18.39
2019-06-19T04:56:46.156Z,18.40
2019-06-19T04:57:46.198Z,18.42
2019-06-19T04:58:46.238Z,18.39
2019-06-19T04:59:46.294Z,18.34
2019-06-19T05:00:46.333Z,18.39
2019-06-19T05:01:46.346Z,18.42
2019-06-19T05:02:46.386Z,18.39
2019-06-19T05:03:46.443Z,18.40
2019-06-19T05:04:46.459Z,18.43
2019-06-19T05:05:46.517Z,18.44
2019-06-19T05:06:46.581Z,18.43
2019-06-19T05:07:46.594Z,18.40
2019-06-19T05:08:46.648Z,18.44
2019-06-19T05:09:46.676Z,18.44
2019-06-19T05:10:46.773Z,18.43
2019-06-19T05:11:46.759Z,18.42
2019-06-19T05:12:46.851Z,18.46
2019-06-19T05:13:46.860Z,18.40
2019-06-19T05:14:46.876Z,18.37
2019-06-19T05:15:46.943Z,18.37
2019-06-19T05:16:47.009Z,18.36
2019-06-19T05:17:47.020Z,18.37
2019-06-19T05:18:47.065Z,18.34
2019-06-19T05:19:47.115Z,18.34
2019-06-19T05:20:47.138Z,18.31
2019-06-19T05:21:47.180Z,18.37
2019-06-19T05:22:47.224Z,18.31
2019-06-19T05:23:47.266Z,18.29
2019-06-19T05:24:47.318Z,18.34
2019-06-19T05:25:47.346Z,18.36
2019-06-19T05:26:47.401Z,18.34
2019-06-19T05:27:47.490Z,18.40
2019-06-19T05:28:47.491Z,18.37
2019-06-19T05:29:47.526Z,18.37
2019-06-19T05:30:47.566Z,18.37
2019-06-19T05:31:47.618Z,18.29
2019-06-19T05:32:47.665Z,18.21
2019-06-19T05:33:47.706Z,18.29
2019-06-19T05:34:47.739Z,18.36
2019-06-19T05:35:47.779Z,18.28
2019-06-19T05:36:47.808Z,18.34
2019-06-19T05:37:47.893Z,18.31
2019-06-19T05:38:47.915Z,18.21
2019-06-19T05:39:47.953Z,18.27
2019-06-19T05:40:48.015Z,18.28
2019-06-19T05:41:48.041Z,18.19
2019-06-19T05:42:48.103Z,18.27
2019-06-19T05:43:48.126Z,18.28
2019-06-19T05:44:48.169Z,18.25
2019-06-19T05:45:48.195Z,18.21
2019-06-19T05:46:48.248Z,18.24
2019-06-19T05:47:48.289Z,18.25
2019-06-19T05:48:48.337Z,18.31
2019-06-19T05:49:48.375Z,18.33
2019-06-19T05:50:48.458Z,18.31
2019-06-19T05:51:48.457Z,18.27
2019-06-19T05:52:48.511Z,18.33
2019-06-19T05:53:48.540Z,18.29
2019-06-19T05:54:48.588Z,18.24
2019-06-19T05:55:48.653Z,18.25
2019-06-19T05:56:48.689Z,18.25
2019-06-19T05:57:48.706Z,18.22
2019-06-19T05:58:48.731Z,18.29
2019-06-19T05:59:48.785Z,18.17
2019-06-19T06:00:48.898Z,18.25
2019-06-19T06:01:48.889Z,18.22
2019-06-19T06:02:52.380Z,18.25
2019-06-19T06:03:48.962Z,18.24
2019-06-19T06:04:49.013Z,18.15
2019-06-19T06:05:49.074Z,18.17
2019-06-19T06:06:49.130Z,18.13
2019-06-19T06:07:49.150Z,18.15
2019-06-19T06:08:49.231Z,18.22
2019-06-19T06:09:49.217Z,18.04
2019-06-19T06:10:49.258Z,18.10
2019-06-19T06:11:49.314Z,18.13
2019-06-19T06:12:49.403Z,18.06
2019-06-19T06:13:49.391Z,18.07
2019-06-19T06:14:49.439Z,18.09
2019-06-19T06:15:49.489Z,18.02
2019-06-19T06:16:49.532Z,18.10
2019-06-19T06:17:49.585Z,18.04
2019-06-19T06:18:49.604Z,17.94
2019-06-19T06:19:49.633Z,18.00
2019-06-19T06:20:49.682Z,17.95
2019-06-19T06:21:49.730Z,17.87
2019-06-19T06:22:49.767Z,17.91
2019-06-19T06:23:49.794Z,17.81
2019-06-19T06:24:49.849Z,17.78
2019-06-19T06:25:49.916Z,17.76
2019-06-19T06:26:49.949Z,17.82
2019-06-19T06:27:49.969Z,17.84
2019-06-19T06:28:50.037Z,17.78
2019-06-19T06:29:50.064Z,17.78
2019-06-19T06:30:50.121Z,17.73
2019-06-19T06:31:50.154Z,17.67
2019-06-19T06:32:50.198Z,17.67
2019-06-19T06:33:50.247Z,17.69
2019-06-19T06:34:50.280Z,17.67
2019-06-19T06:35:50.324Z,17.67
2019-06-19T06:36:50.384Z,17.54
2019-06-19T06:37:50.398Z,17.57
2019-06-19T06:38:50.439Z,17.63
2019-06-19T06:39:50.503Z,17.63
2019-06-19T06:40:50.540Z,17.59
2019-06-19T06:41:50.565Z,17.54
2019-06-19T06:42:50.600Z,17.48
2019-06-19T06:43:50.747Z,17.48
2019-06-19T06:44:50.861Z,17.50
2019-06-19T06:45:50.730Z,17.48
2019-06-19T06:46:50.777Z,17.44
2019-06-19T06:47:50.876Z,17.46
2019-06-19T06:48:50.885Z,17.48
2019-06-19T06:49:50.955Z,17.48
2019-06-19T06:50:50.950Z,17.54
2019-06-19T06:51:51.018Z,17.46
2019-06-19T06:52:51.026Z,17.44
2019-06-19T06:53:51.081Z,17.47
2019-06-19T06:54:51.114Z,17.51
2019-06-19T06:55:51.153Z,17.44
2019-06-19T06:56:51.197Z,17.48
2019-06-19T06:57:51.259Z,17.50
2019-06-19T06:58:51.287Z,17.47
2019-06-19T06:59:51.326Z,17.53
2019-06-19T07:00:51.354Z,17.53
2019-06-19T07:01:51.417Z,17.43
2019-06-19T07:02:51.457Z,17.44
2019-06-19T07:03:51.521Z,17.48
2019-06-19T07:04:51.533Z,17.47
2019-06-19T07:05:51.584Z,17.48
2019-06-19T07:06:51.611Z,17.44
2019-06-19T07:07:51.659Z,17.51
2019-06-19T07:08:51.692Z,17.46
2019-06-19T07:09:51.754Z,17.44
2019-06-19T07:10:51.801Z,17.54
2019-06-19T07:11:51.834Z,17.59
2019-06-19T07:12:51.867Z,17.51
2019-06-19T07:13:51.953Z,17.51
2019-06-19T07:14:51.963Z,17.62
2019-06-19T07:15:51.974Z,17.63
2019-06-19T07:16:52.034Z,17.63
2019-06-19T07:17:52.053Z,17.67
2019-06-19T07:18:52.122Z,17.69
2019-06-19T07:19:52.173Z,17.67
2019-06-19T07:20:52.184Z,17.76
2019-06-19T07:21:52.245Z,17.78
2019-06-19T07:22:52.319Z,17.76
2019-06-19T07:23:52.327Z,17.81
2019-06-19T07:24:52.378Z,17.81
2019-06-19T07:25:52.416Z,17.84
2019-06-19T07:26:53.414Z,17.79
2019-06-19T07:27:52.502Z,17.79
2019-06-19T07:28:52.527Z,17.85
2019-06-19T07:29:52.596Z,17.84
2019-06-19T07:30:52.625Z,17.89
2019-06-19T07:31:52.695Z,17.84
2019-06-19T07:32:52.714Z,17.81
2019-06-19T07:33:52.770Z,17.84
2019-06-19T07:34:52.780Z,17.91
2019-06-19T07:35:52.893Z,17.87
2019-06-19T07:36:52.863Z,17.91
2019-06-19T07:37:52.925Z,17.91
2019-06-19T07:38:52.955Z,17.88
2019-06-19T07:39:53.023Z,17.92
2019-06-19T07:40:53.062Z,17.91
2019-06-19T07:41:53.085Z,17.94
2019-06-19T07:42:53.122Z,17.92
2019-06-19T07:43:53.186Z,17.87
2019-06-19T07:44:53.236Z,17.91
2019-06-19T07:45:53.236Z,17.91
2019-06-19T07:46:53.296Z,17.92
2019-06-19T07:47:53.329Z,17.91
2019-06-19T07:48:53.369Z,17.97
2019-06-19T07:49:53.418Z,17.97
2019-06-19T07:50:53.560Z,18.00
2019-06-19T07:51:53.535Z,17.91
2019-06-19T07:52:53.541Z,17.97
2019-06-19T07:53:53.584Z,18.00
2019-06-19T07:54:53.653Z,17.97
2019-06-19T07:55:53.681Z,17.91
2019-06-19T07:56:53.753Z,18.00
2019-06-19T07:57:53.754Z,18.02
2019-06-19T07:58:53.785Z,18.02
2019-06-19T07:59:53.874Z,17.95
2019-06-19T08:00:53.878Z,17.97
2019-06-19T08:02:03.690Z,18.02
2019-06-19T08:02:53.973Z,17.99
2019-06-19T08:03:57.807Z,17.94
2019-06-19T08:04:54.063Z,17.95
2019-06-19T08:05:54.105Z,18.00
2019-06-19T08:06:54.126Z,17.94
2019-06-19T08:07:54.165Z,17.99
2019-06-19T08:08:54.202Z,18.06
2019-06-19T08:09:54.247Z,17.97
2019-06-19T08:10:54.303Z,17.95
2019-06-19T08:11:54.368Z,18.00
2019-06-19T08:12:54.401Z,18.00
2019-06-19T08:13:54.422Z,18.00
2019-06-19T08:14:54.490Z,17.95
2019-06-19T08:15:54.512Z,17.91
2019-06-19T08:16:54.545Z,17.95
2019-06-19T08:17:54.732Z,17.97
2019-06-19T08:18:54.648Z,17.94
2019-06-19T08:19:54.699Z,17.99
2019-06-19T08:20:54.747Z,17.95
2019-06-19T08:21:54.761Z,17.99
2019-06-19T08:22:54.798Z,17.97
2019-06-19T08:23:54.858Z,17.95
2019-06-19T08:24:54.892Z,17.97
2019-06-19T08:25:54.941Z,17.97
2019-06-19T08:26:54.975Z,18.02
2019-06-19T08:27:55.009Z,18.00
2019-06-19T08:28:55.053Z,17.94
2019-06-19T08:29:55.117Z,17.95
2019-06-19T08:30:55.151Z,17.95
2019-06-19T08:31:55.194Z,17.99
2019-06-19T08:32:55.233Z,18.02
2019-06-19T08:33:55.288Z,18.02
2019-06-19T08:34:55.371Z,17.97
2019-06-19T08:35:55.340Z,18.02
2019-06-19T08:36:55.385Z,17.95
2019-06-19T08:37:55.450Z,17.99
2019-06-19T08:38:55.487Z,18.00
2019-06-19T08:39:55.527Z,17.95
2019-06-19T08:41:00.206Z,17.95
2019-06-19T08:41:55.593Z,17.88
2019-06-19T08:42:55.665Z,17.99
2019-06-19T08:43:55.698Z,18.00
2019-06-19T08:44:55.723Z,18.04
2019-06-19T08:45:55.789Z,18.02
2019-06-19T08:46:55.833Z,18.00
2019-06-19T08:47:55.866Z,18.03
2019-06-19T08:48:55.907Z,17.95
2019-06-19T08:49:55.941Z,17.97
2019-06-19T08:50:55.982Z,17.97
2019-06-19T08:51:56.025Z,17.94
2019-06-19T08:52:58.145Z,18.00
2019-06-19T08:53:56.121Z,17.92
2019-06-19T08:54:56.166Z,17.91
2019-06-19T08:55:56.197Z,17.91
2019-06-19T08:56:56.246Z,17.95
2019-06-19T08:57:56.261Z,17.95
2019-06-19T08:58:56.369Z,17.89
2019-06-19T08:59:56.379Z,17.91
2019-06-19T09:00:56.401Z,17.89
2019-06-19T09:01:56.468Z,17.97
2019-06-19T09:02:56.511Z,17.97
2019-06-19T09:03:56.551Z,17.95
2019-06-19T09:04:56.586Z,17.97
2019-06-19T09:05:56.638Z,17.97
2019-06-19T09:06:56.672Z,17.94
2019-06-19T09:07:56.705Z,18.03
2019-06-19T09:08:56.732Z,17.99
2019-06-19T09:09:56.787Z,17.97
2019-06-19T09:10:56.825Z,17.97
2019-06-19T09:11:56.861Z,18.00
2019-06-19T09:12:59.778Z,17.99
2019-06-19T09:13:56.953Z,17.99
2019-06-19T09:14:56.993Z,17.94
2019-06-19T09:15:57.073Z,17.94
2019-06-19T09:16:57.098Z,17.91
2019-06-19T09:17:57.126Z,17.92
2019-06-19T09:18:57.153Z,17.97
2019-06-19T09:19:57.190Z,17.89
2019-06-19T09:20:57.264Z,17.89
2019-06-19T09:21:57.327Z,17.95
2019-06-19T09:22:57.328Z,17.91
2019-06-19T09:23:57.369Z,18.02
2019-06-19T09:24:57.424Z,18.02
2019-06-19T09:25:57.448Z,18.02
2019-06-19T09:26:57.503Z,17.94
2019-06-19T09:27:57.555Z,17.97
2019-06-19T09:28:57.619Z,17.95
2019-06-19T09:29:57.663Z,17.95
2019-06-19T09:30:57.681Z,18.06
2019-06-19T09:31:57.705Z,17.97
2019-06-19T09:32:57.824Z,18.00
2019-06-19T09:33:57.828Z,18.02
2019-06-19T09:34:57.833Z,18.02
2019-06-19T09:35:57.886Z,17.94
2019-06-19T09:36:57.913Z,17.95
2019-06-19T09:37:57.948Z,18.00
2019-06-19T09:38:58.016Z,18.02
2019-06-19T09:39:58.030Z,18.04
2019-06-19T09:40:58.086Z,17.94
2019-06-19T09:41:58.127Z,17.97
2019-06-19T09:42:58.162Z,18.02
2019-06-19T09:43:58.196Z,17.92
2019-06-19T09:44:58.276Z,17.94
2019-06-19T09:45:58.301Z,17.91
2019-06-19T09:46:58.330Z,17.87
2019-06-19T09:47:58.392Z,17.79
2019-06-19T09:48:58.438Z,17.85
2019-06-19T09:49:58.446Z,17.87
2019-06-19T09:50:58.551Z,17.76
2019-06-19T09:51:58.557Z,17.97
2019-06-19T09:52:58.606Z,17.94
2019-06-19T09:53:58.632Z,17.92
2019-06-19T09:54:58.672Z,17.88
2019-06-19T09:55:58.723Z,17.91
2019-06-19T09:56:58.839Z,17.91
2019-06-19T09:57:58.802Z,17.97
2019-06-19T09:58:58.874Z,17.97
2019-06-19T09:59:58.887Z,17.95
2019-06-19T10:00:58.928Z,17.91
2019-06-19T10:01:58.953Z,18.02
2019-06-19T10:02:59.001Z,18.02
2019-06-19T10:03:59.036Z,17.94
2019-06-19T10:05:07.141Z,18.03
2019-06-19T10:05:59.151Z,18.02
2019-06-19T10:06:59.198Z,18.10
2019-06-19T10:07:59.238Z,18.09
2019-06-19T10:08:59.285Z,18.07
2019-06-19T10:09:59.303Z,18.07
2019-06-19T10:10:59.342Z,18.10
2019-06-19T10:11:59.399Z,18.09
2019-06-19T10:12:59.432Z,18.02
2019-06-19T10:13:59.487Z,18.09
2019-06-19T10:14:59.526Z,18.09
2019-06-19T10:16:02.403Z,18.18
2019-06-19T10:16:59.589Z,18.18
2019-06-19T10:17:59.654Z,18.12
2019-06-19T10:18:59.686Z,18.25
2019-06-19T10:19:59.726Z,18.19
2019-06-19T10:20:59.772Z,18.28
2019-06-19T10:21:59.844Z,18.19
2019-06-19T10:22:59.931Z,18.22
2019-06-19T10:23:59.943Z,18.21
2019-06-19T10:24:59.958Z,18.29
2019-06-19T10:25:59.993Z,18.29
2019-06-19T10:27:00.057Z,18.34
2019-06-19T10:28:00.067Z,18.37
2019-06-19T10:29:00.106Z,18.39
2019-06-19T10:30:03.176Z,18.36
2019-06-19T10:31:00.183Z,18.40
2019-06-19T10:32:00.254Z,18.44
2019-06-19T10:33:00.297Z,18.47
2019-06-19T10:34:00.320Z,18.43
2019-06-19T10:35:00.371Z,18.52
2019-06-19T10:36:00.448Z,18.55
2019-06-19T10:37:00.447Z,18.52
2019-06-19T10:38:00.488Z,18.52
2019-06-19T10:39:00.520Z,18.59
2019-06-19T10:40:00.572Z,18.57
2019-06-19T10:41:00.653Z,18.59
2019-06-19T10:42:00.679Z,18.55
2019-06-19T10:43:00.740Z,18.52
2019-06-19T10:44:00.748Z,18.67
2019-06-19T10:45:00.771Z,18.73
2019-06-19T10:46:00.848Z,18.72
2019-06-19T10:47:00.920Z,18.79
2019-06-19T10:48:00.930Z,18.82
2019-06-19T10:49:00.971Z,18.74
2019-06-19T10:50:00.998Z,18.87
2019-06-19T10:51:01.044Z,18.87
2019-06-19T10:52:01.103Z,18.87
2019-06-19T10:53:01.117Z,18.92
2019-06-19T10:54:01.192Z,18.90
2019-06-19T10:55:01.230Z,18.91
2019-06-19T10:56:01.267Z,18.92
2019-06-19T10:57:01.319Z,19.05
2019-06-19T10:58:01.412Z,18.99
2019-06-19T10:59:01.385Z,19.06
2019-06-19T11:00:01.453Z,19.14
2019-06-19T11:01:01.480Z,19.20
2019-06-19T11:02:01.518Z,19.17
2019-06-19T11:03:01.561Z,19.24
2019-06-19T11:04:01.604Z,19.35
2019-06-19T11:05:01.700Z,19.33
2019-06-19T11:06:01.705Z,19.32
2019-06-19T11:07:01.751Z,19.33
2019-06-19T11:08:01.790Z,19.38
2019-06-19T11:09:01.832Z,19.47
2019-06-19T11:10:01.948Z,19.42
2019-06-19T11:11:01.940Z,19.43
2019-06-19T11:12:01.969Z,19.40
2019-06-19T11:13:02.064Z,19.43
2019-06-19T11:14:02.049Z,19.51
2019-06-19T11:15:02.145Z,19.43
2019-06-19T11:16:02.139Z,19.46
2019-06-19T11:17:02.193Z,19.54
2019-06-19T11:18:02.232Z,19.57
2019-06-19T11:19:02.614Z,19.65
2019-06-19T11:20:02.297Z,19.60
2019-06-19T11:21:02.349Z,19.63
2019-06-19T11:22:02.413Z,19.63
2019-06-19T11:23:02.430Z,19.68
2019-06-19T11:24:02.501Z,19.72
2019-06-19T11:25:02.522Z,19.66
2019-06-19T11:26:02.577Z,19.66
2019-06-19T11:27:02.618Z,19.60
2019-06-19T11:28:02.666Z,19.61
2019-06-19T11:29:02.805Z,19.66
2019-06-19T11:30:02.771Z,19.68
2019-06-19T11:31:02.950Z,19.70
2019-06-19T11:32:02.862Z,19.75
2019-06-19T11:33:02.908Z,19.79
2019-06-19T11:34:02.962Z,19.84
2019-06-19T11:35:02.982Z,19.87
2019-06-19T11:36:03.043Z,19.90
2019-06-19T11:37:03.072Z,19.87
2019-06-19T11:38:03.119Z,19.90
2019-06-19T11:39:03.147Z,19.94
2019-06-19T11:40:03.194Z,20.05
2019-06-19T11:41:03.281Z,20.05
2019-06-19T11:42:03.308Z,20.10
2019-06-19T11:43:03.329Z,20.00
2019-06-19T11:44:03.391Z,20.09
2019-06-19T11:45:03.418Z,20.06
2019-06-19T11:46:03.444Z,20.08
2019-06-19T11:47:03.533Z,20.15
2019-06-19T11:48:03.552Z,20.24
2019-06-19T11:49:03.649Z,20.27
2019-06-19T11:50:03.631Z,20.34
2019-06-19T11:51:03.686Z,20.33
2019-06-19T11:52:03.730Z,20.38
2019-06-19T11:53:03.765Z,20.35
2019-06-19T11:54:03.807Z,20.49
2019-06-19T11:55:04.166Z,20.46
2019-06-19T11:56:03.907Z,20.39
2019-06-19T11:57:03.957Z,20.50
2019-06-19T11:58:03.998Z,20.62
2019-06-19T11:59:04.029Z,20.61
2019-06-19T12:00:04.076Z,20.68
2019-06-19T12:01:04.130Z,20.65
2019-06-19T12:02:04.170Z,20.80
2019-06-19T12:03:04.226Z,20.80
2019-06-19T12:04:04.266Z,20.98
2019-06-19T12:05:04.366Z,20.89
2019-06-19T12:06:13.591Z,21.06
2019-06-19T12:07:04.405Z,21.02
2019-06-19T12:08:04.480Z,21.02
2019-06-19T12:09:04.508Z,20.95
2019-06-19T12:10:04.536Z,21.06
2019-06-19T12:11:04.591Z,21.13
2019-06-19T12:12:04.634Z,21.08
2019-06-19T12:13:04.660Z,21.06
2019-06-19T12:14:17.645Z,21.11
2019-06-19T12:15:04.760Z,21.11
2019-06-19T12:16:04.816Z,21.23
2019-06-19T12:17:04.849Z,21.30
2019-06-19T12:18:04.904Z,21.29
2019-06-19T12:19:04.950Z,21.35
2019-06-19T12:20:04.977Z,21.36
2019-06-19T12:21:05.019Z,21.44
2019-06-19T12:22:05.085Z,21.59
2019-06-19T12:23:05.169Z,21.91
2019-06-19T12:24:05.186Z,22.10
2019-06-19T12:25:05.223Z,22.35
2019-06-19T12:26:05.274Z,22.23
2019-06-19T12:27:05.319Z,22.13
2019-06-19T12:28:05.380Z,22.09
2019-06-19T12:29:05.405Z,22.17
2019-06-19T12:30:06.653Z,22.20
2019-06-19T12:31:05.540Z,22.19
2019-06-19T12:32:05.552Z,22.23
2019-06-19T12:33:05.587Z,22.12
2019-06-19T12:34:05.896Z,22.13
2019-06-19T12:35:05.691Z,22.16
2019-06-19T12:36:05.740Z,22.12
2019-06-19T12:37:05.776Z,22.13
2019-06-19T12:38:05.819Z,22.22
2019-06-19T12:39:05.864Z,22.19
2019-06-19T12:40:05.920Z,22.17
2019-06-19T12:41:05.986Z,22.29
2019-06-19T12:42:06.017Z,22.39
2019-06-19T12:43:06.046Z,22.53
2019-06-19T12:44:06.089Z,22.59
2019-06-19T12:45:06.169Z,22.65
2019-06-19T12:46:06.241Z,22.71
2019-06-19T12:47:06.247Z,22.84
2019-06-19T12:48:06.301Z,23.04
2019-06-19T12:49:06.378Z,23.08
2019-06-19T12:50:06.414Z,23.12
2019-06-19T12:51:06.436Z,23.14
2019-06-19T12:52:06.489Z,23.12
2019-06-19T12:53:06.530Z,23.20